Terminal Aerodrome Forecast
Issued by NWS

Home | Current Version | Previous Version | Graphics & Text | Print | Product List | Glossary On
Versions: 1 2 3 4 5 6 7 8 9 10 11 12 13
000
FTUS42 KMHX 171740
TAFPGV
TAF
KPGV 171740Z 1718/1818 03009KT P6SM VCSH OVC060
     FM172100 02007KT 5SM -RASN BR SCT005 OVC020
     FM172300 02009G20KT 2SM -SN OVC005
     FM180400 35012G20KT P6SM -SHSN SCT005 BKN010
     FM180600 34010G20KT P6SM BKN025
     FM181000 29009KT P6SM SCT040
      AMD LTD TO CLD VIS AND WIND=

USA.gov is the U.S. government's official web portal to all federal, state and local government web resources and services.